createdAt,value
2023-01-03T00:00:48.453Z,8.73
2023-01-03T00:03:18.523Z,8.27
2023-01-03T00:05:46.642Z,8.13
2023-01-03T00:08:13.601Z,8.10
2023-01-03T00:10:40.449Z,8.25
2023-01-03T00:15:38.435Z,7.32
2023-01-03T00:18:05.369Z,7.93
2023-01-03T00:20:34.544Z,6.80
2023-01-03T00:23:02.382Z,7.62
2023-01-03T00:25:29.976Z,7.12
2023-01-03T00:27:57.104Z,7.00
2023-01-03T00:30:24.015Z,7.47
2023-01-03T00:32:50.858Z,7.28
2023-01-03T00:37:44.489Z,7.70
2023-01-03T00:40:11.836Z,7.32
2023-01-03T00:42:58.604Z,7.15
2023-01-03T00:45:25.867Z,7.62
2023-01-03T00:47:53.339Z,7.55
2023-01-03T00:50:20.256Z,7.65
2023-01-03T00:52:47.137Z,7.62
2023-01-03T00:55:14.077Z,6.78
2023-01-03T00:57:40.915Z,6.12
2023-01-03T01:02:34.897Z,6.72
2023-01-03T01:05:01.963Z,6.47
2023-01-03T01:07:28.940Z,7.03
2023-01-03T01:09:55.791Z,7.30
2023-01-03T01:14:49.353Z,7.45
2023-01-03T01:17:22.228Z,7.12
2023-01-03T01:19:49.635Z,6.95
2023-01-03T01:22:16.584Z,7.32
2023-01-03T01:24:43.555Z,7.00
2023-01-03T01:27:10.697Z,6.60
2023-01-03T01:29:38.643Z,7.07
2023-01-03T01:32:06.037Z,6.47
2023-01-03T01:34:33.247Z,6.45
2023-01-03T01:37:00.355Z,6.28
2023-01-03T01:39:28.643Z,6.72
2023-01-03T01:42:20.779Z,6.57
2023-01-03T01:45:04.512Z,6.87
2023-01-03T01:47:33.645Z,6.00
2023-01-03T01:50:38.399Z,6.80
2023-01-03T01:53:23.848Z,6.37
2023-01-03T01:56:16.061Z,6.62
2023-01-03T01:58:44.406Z,6.32
2023-01-03T02:01:13.374Z,6.90
2023-01-03T02:03:41.912Z,6.37
2023-01-03T02:06:11.056Z,6.43
2023-01-03T02:08:37.943Z,6.28
2023-01-03T02:11:20.649Z,6.25
2023-01-03T02:14:23.219Z,5.85
2023-01-03T02:17:05.923Z,6.10
2023-01-03T02:20:17.782Z,6.47
2023-01-03T02:23:02.523Z,5.85
2023-01-03T02:25:50.662Z,5.60
2023-01-03T02:28:38.527Z,6.18
2023-01-03T02:31:09.528Z,6.07
2023-01-03T02:33:57.999Z,5.90
2023-01-03T02:36:36.157Z,5.90
2023-01-03T02:39:30.063Z,5.00
2023-01-03T02:42:18.542Z,5.03
2023-01-03T02:44:55.759Z,5.18
2023-01-03T02:47:25.896Z,5.25
2023-01-03T02:49:53.272Z,5.00
2023-01-03T02:52:24.299Z,5.35
2023-01-03T02:55:09.012Z,5.55
2023-01-03T02:58:02.276Z,5.07
2023-01-03T03:00:31.808Z,5.12
2023-01-03T03:03:02.714Z,5.65
2023-01-03T03:05:33.941Z,4.78
2023-01-03T03:08:00.852Z,4.55
2023-01-03T03:10:46.954Z,5.03
2023-01-03T03:13:30.587Z,5.00
2023-01-03T03:16:05.906Z,4.85
2023-01-03T03:19:00.088Z,4.78
2023-01-03T03:21:51.376Z,4.32
2023-01-03T03:24:40.004Z,4.68
2023-01-03T03:27:28.363Z,4.95
2023-01-03T03:29:58.424Z,4.72
2023-01-03T03:32:27.522Z,5.50
2023-01-03T03:34:56.441Z,4.40
2023-01-03T03:37:25.448Z,4.90
2023-01-03T03:40:10.801Z,5.05
2023-01-03T03:43:11.095Z,4.90
2023-01-03T03:45:59.796Z,4.43
2023-01-03T03:48:54.044Z,4.62
2023-01-03T03:51:22.487Z,4.45
2023-01-03T03:53:50.857Z,4.60
2023-01-03T03:56:19.534Z,5.12
2023-01-03T03:58:49.929Z,4.62
2023-01-03T04:01:19.421Z,5.03
2023-01-03T04:03:47.787Z,5.30
2023-01-03T04:06:31.629Z,5.10
2023-01-03T04:08:58.781Z,5.53
2023-01-03T04:11:25.666Z,5.05
2023-01-03T04:13:52.512Z,5.15
2023-01-03T04:18:46.133Z,4.62
2023-01-03T04:23:47.745Z,5.18
2023-01-03T04:26:14.675Z,5.10
2023-01-03T04:28:41.516Z,5.43
2023-01-03T04:33:35.344Z,8.48
2023-01-03T04:36:02.201Z,5.87
2023-01-03T04:40:55.806Z,5.32
2023-01-03T04:43:41.358Z,4.85
2023-01-03T04:46:08.259Z,5.28
2023-01-03T04:48:35.116Z,5.30
2023-01-03T04:53:28.655Z,4.57
2023-01-03T04:55:59.264Z,4.93
2023-01-03T04:58:26.339Z,5.20
2023-01-03T05:00:53.318Z,5.10
2023-01-03T05:03:25.848Z,5.22
2023-01-03T05:05:59.197Z,5.50
2023-01-03T05:08:26.309Z,5.60
2023-01-03T05:10:53.796Z,4.90
2023-01-03T05:13:20.785Z,5.40
2023-01-03T05:15:47.741Z,5.10
2023-01-03T05:18:14.797Z,5.35
2023-01-03T05:21:00.238Z,5.20
2023-01-03T05:23:45.948Z,5.35
2023-01-03T05:26:20.312Z,5.32
2023-01-03T05:28:50.027Z,4.87
2023-01-03T05:31:16.909Z,5.43
2023-01-03T05:33:43.811Z,5.25
2023-01-03T05:36:11.154Z,5.45
2023-01-03T05:38:38.666Z,5.47
2023-01-03T05:41:06.168Z,5.70
2023-01-03T05:43:33.309Z,5.62
2023-01-03T05:46:00.284Z,5.53
2023-01-03T05:48:27.270Z,5.50
2023-01-03T05:50:57.544Z,5.75
2023-01-03T05:53:24.951Z,5.40
2023-01-03T05:55:51.888Z,5.65
2023-01-03T05:58:18.860Z,6.15
2023-01-03T06:00:45.723Z,5.65
2023-01-03T06:05:43.282Z,5.72
2023-01-03T06:08:13.292Z,6.15
2023-01-03T06:10:41.111Z,5.62
2023-01-03T06:13:08.171Z,5.93
2023-01-03T06:15:35.008Z,5.55
2023-01-03T06:20:30.409Z,5.97
2023-01-03T06:22:57.883Z,6.03
2023-01-03T06:25:24.939Z,5.80
2023-01-03T06:27:51.860Z,6.10
2023-01-03T06:30:18.962Z,6.37
2023-01-03T06:32:46.132Z,6.47
2023-01-03T06:35:13.187Z,5.57
2023-01-03T06:37:40.327Z,6.10
2023-01-03T06:40:07.885Z,6.43
2023-01-03T06:42:44.447Z,6.05
2023-01-03T06:45:31.649Z,5.97
2023-01-03T06:48:21.748Z,6.10
2023-01-03T06:51:10.918Z,5.68
2023-01-03T06:53:40.249Z,6.03
2023-01-03T06:56:08.205Z,6.05
2023-01-03T06:58:35.905Z,5.90
2023-01-03T07:01:04.398Z,5.97
2023-01-03T07:03:32.363Z,5.62
2023-01-03T07:05:59.781Z,5.85
2023-01-03T07:08:26.709Z,5.40
2023-01-03T07:10:55.028Z,5.68
2023-01-03T07:13:40.455Z,5.15
2023-01-03T07:16:07.574Z,5.68
2023-01-03T07:18:34.473Z,4.60
2023-01-03T07:21:01.359Z,5.25
2023-01-03T07:23:28.209Z,4.85
2023-01-03T07:28:22.742Z,5.10
2023-01-03T07:30:49.903Z,4.15
2023-01-03T07:36:11.006Z,4.75
2023-01-03T07:38:42.368Z,4.50
2023-01-03T07:43:57.890Z,3.97
2023-01-03T07:46:25.450Z,4.60
2023-01-03T08:07:18.958Z,4.00
2023-01-03T08:10:04.309Z,4.53
2023-01-03T08:12:57.455Z,4.10
2023-01-03T08:15:24.477Z,4.80
2023-01-03T08:17:53.937Z,4.43
2023-01-03T08:20:23.880Z,4.70
2023-01-03T08:22:50.772Z,4.57
2023-01-03T08:25:17.692Z,5.25
2023-01-03T08:27:50.006Z,5.05
2023-01-03T08:30:17.448Z,4.60
2023-01-03T08:35:27.108Z,4.93
2023-01-03T08:37:54.470Z,4.82
2023-01-03T08:40:41.885Z,5.45
2023-01-03T08:45:59.610Z,3.92
2023-01-03T08:48:26.634Z,5.03
2023-01-03T08:50:53.513Z,3.95
2023-01-03T08:53:23.052Z,4.03
2023-01-03T08:55:50.084Z,4.30
2023-01-03T08:58:17.307Z,5.18
2023-01-03T09:00:46.196Z,3.72
2023-01-03T09:03:13.294Z,3.90
2023-01-03T09:05:40.448Z,4.10
2023-01-03T09:08:07.586Z,3.28
2023-01-03T09:10:36.298Z,3.87
2023-01-03T09:13:04.712Z,3.72
2023-01-03T09:15:31.597Z,3.70
2023-01-03T09:17:58.411Z,3.45
2023-01-03T09:20:26.307Z,3.92
2023-01-03T09:22:53.459Z,3.70
2023-01-03T09:25:20.319Z,4.05
2023-01-03T09:27:48.103Z,3.60
2023-01-03T09:30:16.160Z,3.75
2023-01-03T09:32:43.051Z,3.75
2023-01-03T09:35:10.318Z,4.70
2023-01-03T09:37:37.220Z,4.03
2023-01-03T09:40:04.548Z,4.00
2023-01-03T09:42:50.107Z,4.22
2023-01-03T09:45:25.060Z,4.28
2023-01-03T09:47:51.969Z,4.00
2023-01-03T09:50:44.457Z,4.53
2023-01-03T09:53:44.043Z,3.60
2023-01-03T09:56:31.032Z,3.90
2023-01-03T09:59:47.831Z,4.37
2023-01-03T10:03:03.379Z,3.97
2023-01-03T10:05:56.090Z,4.18
2023-01-03T10:08:32.023Z,3.92
2023-01-03T10:11:08.335Z,3.80
2023-01-03T10:13:35.208Z,3.97
2023-01-03T10:16:11.254Z,3.78
2023-01-03T10:19:02.774Z,4.07
2023-01-03T10:21:42.637Z,4.10
2023-01-03T10:24:18.660Z,3.70
2023-01-03T10:26:45.567Z,3.85
2023-01-03T10:29:13.707Z,4.32
2023-01-03T10:32:07.829Z,3.92
2023-01-03T10:34:34.750Z,3.37
2023-01-03T10:37:02.404Z,4.28
2023-01-03T10:39:32.561Z,3.65
2023-01-03T10:42:00.492Z,3.90
2023-01-03T10:44:30.055Z,4.18
2023-01-03T10:46:59.631Z,3.92
2023-01-03T10:49:30.638Z,4.70
2023-01-03T10:52:05.134Z,4.12
2023-01-03T10:54:41.297Z,4.82
2023-01-03T10:57:08.326Z,4.05
2023-01-03T10:59:35.770Z,4.20
2023-01-03T11:02:09.011Z,4.60
2023-01-03T11:04:36.163Z,4.57
2023-01-03T11:07:04.880Z,4.37
2023-01-03T11:09:47.012Z,4.50
2023-01-03T11:12:41.673Z,4.75
2023-01-03T11:15:37.627Z,4.00
2023-01-03T11:18:19.427Z,4.55
2023-01-03T11:21:01.329Z,4.55
2023-01-03T11:23:45.107Z,4.97
2023-01-03T11:26:43.173Z,4.62
2023-01-03T11:29:31.780Z,3.95
2023-01-03T11:32:03.140Z,4.57
2023-01-03T11:37:52.444Z,4.32
2023-01-03T11:40:22.134Z,4.35
2023-01-03T11:43:10.454Z,3.85
2023-01-03T11:46:14.163Z,4.40
2023-01-03T11:49:09.936Z,4.28
2023-01-03T11:51:44.981Z,4.40
2023-01-03T11:55:13.117Z,5.25
2023-01-03T11:58:11.857Z,4.35
2023-01-03T12:00:50.834Z,3.92
2023-01-03T12:03:34.801Z,4.37
2023-01-03T12:06:13.814Z,3.97
2023-01-03T12:08:49.187Z,4.00
2023-01-03T12:11:45.321Z,3.87
2023-01-03T12:14:17.867Z,3.72
2023-01-03T12:17:09.054Z,4.32
2023-01-03T12:20:01.561Z,3.75
2023-01-03T12:22:37.396Z,4.20
2023-01-03T12:25:21.684Z,3.97
2023-01-03T12:28:05.674Z,3.72
2023-01-03T12:30:46.454Z,4.60
2023-01-03T12:33:13.345Z,4.18
2023-01-03T12:36:13.029Z,4.87
2023-01-03T12:38:42.939Z,5.00
2023-01-03T12:41:39.282Z,4.93
2023-01-03T12:44:20.265Z,5.80
2023-01-03T12:46:55.707Z,5.70
2023-01-03T12:49:40.890Z,5.97
2023-01-03T12:52:17.038Z,7.03
2023-01-03T12:55:21.475Z,6.03
2023-01-03T12:57:57.559Z,5.78
2023-01-03T13:00:44.761Z,6.22
2023-01-03T13:03:20.770Z,6.05
2023-01-03T13:05:50.549Z,6.22
2023-01-03T13:08:50.085Z,6.03
2023-01-03T13:11:29.240Z,5.80
2023-01-03T13:13:59.628Z,5.40
2023-01-03T13:16:34.615Z,6.35
2023-01-03T13:19:20.302Z,5.28
2023-01-03T13:21:53.021Z,5.10
2023-01-03T13:24:43.355Z,5.53
2023-01-03T13:27:19.663Z,5.43
2023-01-03T13:29:49.522Z,5.37
2023-01-03T13:32:26.216Z,5.50
2023-01-03T13:34:59.347Z,6.30
2023-01-03T13:37:48.066Z,6.05
2023-01-03T13:40:23.283Z,5.35
2023-01-03T13:43:12.358Z,5.32
2023-01-03T13:45:39.357Z,5.40
2023-01-03T13:48:27.216Z,6.12
2023-01-03T13:51:14.421Z,5.50
2023-01-03T13:53:55.035Z,5.30
2023-01-03T13:56:30.554Z,5.78
2023-01-03T13:59:03.913Z,5.60
2023-01-03T14:01:59.716Z,6.07
2023-01-03T14:04:47.576Z,5.57
2023-01-03T14:10:34.480Z,5.57
2023-01-03T14:13:18.458Z,5.10
2023-01-03T14:15:46.086Z,4.87
2023-01-03T14:18:20.994Z,5.35
2023-01-03T14:20:51.567Z,5.22
2023-01-03T14:26:15.178Z,5.57
2023-01-03T14:28:49.683Z,4.80
2023-01-03T14:31:22.771Z,4.97
2023-01-03T14:34:00.964Z,5.25
2023-01-03T14:36:28.048Z,6.03
2023-01-03T14:39:00.030Z,7.00
2023-01-03T14:41:26.844Z,5.90
2023-01-03T14:44:05.153Z,5.80
2023-01-03T14:46:32.616Z,6.55
2023-01-03T14:49:03.758Z,6.30
2023-01-03T14:51:35.540Z,5.72
2023-01-03T14:54:03.742Z,5.45
2023-01-03T14:56:30.910Z,5.30
2023-01-03T14:58:58.487Z,5.40
2023-01-03T15:01:25.603Z,5.47
2023-01-03T15:03:53.005Z,5.60
2023-01-03T15:06:29.807Z,5.82
2023-01-03T15:08:58.780Z,5.57
2023-01-03T15:11:34.309Z,5.70
2023-01-03T15:14:04.234Z,6.35
2023-01-03T15:16:39.579Z,6.40
2023-01-03T15:19:12.580Z,7.00
2023-01-03T15:21:40.072Z,6.68
2023-01-03T15:24:14.878Z,6.87
2023-01-03T15:26:46.314Z,7.25
2023-01-03T15:29:19.839Z,6.93
2023-01-03T15:31:48.096Z,6.62
2023-01-03T15:34:18.415Z,6.70
2023-01-03T15:37:07.594Z,7.22
2023-01-03T15:39:43.045Z,7.15
2023-01-03T15:42:44.558Z,6.75
2023-01-03T15:45:20.091Z,6.18
2023-01-03T15:47:49.140Z,6.68
2023-01-03T15:50:20.641Z,6.72
2023-01-03T15:52:48.602Z,7.22
2023-01-03T15:55:16.752Z,6.75
2023-01-03T15:57:50.085Z,7.10
2023-01-03T16:00:20.822Z,7.18
2023-01-03T16:02:48.786Z,6.97
2023-01-03T16:05:21.666Z,7.12
2023-01-03T16:07:49.769Z,7.55
2023-01-03T16:10:16.708Z,7.95
2023-01-03T16:12:44.126Z,8.65
2023-01-03T16:15:18.543Z,9.13
2023-01-03T16:17:46.177Z,8.23
2023-01-03T16:20:18.058Z,7.70
2023-01-03T16:22:57.391Z,7.55
2023-01-03T16:25:27.841Z,8.23
2023-01-03T16:27:54.766Z,8.93
2023-01-03T16:30:21.935Z,8.30
2023-01-03T16:32:48.806Z,8.40
2023-01-03T16:35:17.740Z,8.73
2023-01-03T16:37:44.739Z,8.30
2023-01-03T16:40:16.849Z,8.40
2023-01-03T16:42:43.754Z,8.07
2023-01-03T16:45:10.992Z,9.70
2023-01-03T16:47:38.001Z,10.38
2023-01-03T16:50:14.202Z,11.27
2023-01-03T16:52:43.896Z,11.95
2023-01-03T16:55:26.804Z,13.00
2023-01-03T16:57:55.109Z,13.55
2023-01-03T17:00:28.314Z,13.07
2023-01-03T17:02:56.374Z,12.23
2023-01-03T17:05:23.746Z,11.73
2023-01-03T17:07:53.333Z,10.90
2023-01-03T17:10:32.314Z,11.20
2023-01-03T17:13:01.981Z,9.18
2023-01-03T17:15:32.283Z,9.00
2023-01-03T17:17:59.129Z,9.38
2023-01-03T17:20:26.005Z,9.25
2023-01-03T17:22:58.770Z,9.15
2023-01-03T17:25:25.818Z,9.32
2023-01-03T17:27:55.869Z,8.02
2023-01-03T17:30:25.036Z,9.52
2023-01-03T17:32:51.963Z,8.70
2023-01-03T17:35:18.903Z,8.77
2023-01-03T17:38:23.411Z,8.43
2023-01-03T17:40:34.265Z,8.35
2023-01-03T17:43:01.833Z,8.35
2023-01-03T17:45:47.404Z,8.88
2023-01-03T17:48:33.008Z,10.20
2023-01-03T17:51:01.845Z,9.85
2023-01-03T17:53:29.177Z,9.93
2023-01-03T17:55:56.040Z,10.48
2023-01-03T17:58:31.406Z,10.57
2023-01-03T18:00:59.101Z,10.32
2023-01-03T18:03:26.563Z,9.10
2023-01-03T18:05:53.819Z,9.00
2023-01-03T18:08:22.239Z,7.68
2023-01-03T18:10:49.634Z,8.25
2023-01-03T18:13:24.745Z,6.85
2023-01-03T18:15:52.155Z,6.70
2023-01-03T18:18:20.752Z,9.32
2023-01-03T18:20:48.012Z,10.38
2023-01-03T18:23:23.561Z,12.25
2023-01-03T18:25:51.510Z,16.20
2023-01-03T18:28:22.705Z,9.07
2023-01-03T18:30:50.084Z,7.57
2023-01-03T18:33:16.979Z,7.15
2023-01-03T18:35:44.191Z,9.00
2023-01-03T18:38:19.420Z,7.87
2023-01-03T18:40:46.262Z,7.00
2023-01-03T18:43:14.189Z,6.95
2023-01-03T18:45:42.291Z,7.20
2023-01-03T18:48:17.439Z,7.50
2023-01-03T18:50:45.589Z,7.35
2023-01-03T18:53:19.804Z,8.20
2023-01-03T18:55:47.020Z,8.07
2023-01-03T18:58:19.616Z,8.30
2023-01-03T19:00:46.482Z,9.25
2023-01-03T19:03:22.759Z,8.95
2023-01-03T19:05:50.304Z,8.77
2023-01-03T19:08:18.359Z,8.05
2023-01-03T19:10:45.577Z,7.40
2023-01-03T19:13:51.201Z,6.95
2023-01-03T19:16:24.104Z,6.00
2023-01-03T19:18:51.727Z,6.68
2023-01-03T19:21:20.154Z,6.03
2023-01-03T19:23:51.617Z,6.22
2023-01-03T19:26:42.988Z,6.20
2023-01-03T19:29:37.143Z,5.32
2023-01-03T19:32:08.302Z,5.72
2023-01-03T19:34:35.218Z,6.25
2023-01-03T19:37:02.165Z,7.05
2023-01-03T19:39:33.756Z,6.60
2023-01-03T19:42:23.105Z,6.25
2023-01-03T19:44:50.332Z,7.00
2023-01-03T19:47:19.116Z,7.45
2023-01-03T19:49:47.405Z,7.10
2023-01-03T19:52:15.336Z,7.43
2023-01-03T19:54:42.592Z,7.20
2023-01-03T19:57:25.717Z,7.62
2023-01-03T19:59:55.415Z,7.30
2023-01-03T20:02:35.812Z,7.20
2023-01-03T20:05:03.722Z,6.95
2023-01-03T20:07:30.663Z,7.43
2023-01-03T20:09:57.516Z,7.50
2023-01-03T20:12:26.305Z,7.35
2023-01-03T20:14:55.095Z,7.18
2023-01-03T20:17:24.098Z,7.43
2023-01-03T20:19:51.391Z,8.32
2023-01-03T20:22:52.991Z,7.57
2023-01-03T20:25:28.039Z,7.03
2023-01-03T20:27:55.675Z,7.07
2023-01-03T20:30:24.838Z,7.30
2023-01-03T20:32:52.292Z,7.47
2023-01-03T20:36:09.811Z,7.35
2023-01-03T20:38:11.194Z,7.37
2023-01-03T20:40:38.268Z,7.62
2023-01-03T20:43:05.672Z,7.37
2023-01-03T20:45:32.820Z,6.53
2023-01-03T20:47:59.999Z,6.80
2023-01-03T20:50:28.940Z,7.12
2023-01-03T20:52:57.364Z,6.72
2023-01-03T20:55:26.107Z,7.20
2023-01-03T20:57:53.109Z,7.05
2023-01-03T21:00:38.789Z,8.10
2023-01-03T21:03:05.987Z,7.72
2023-01-03T21:05:33.011Z,7.68
2023-01-03T21:08:18.488Z,6.93
2023-01-03T21:10:52.732Z,6.97
2023-01-03T21:13:23.240Z,7.25
2023-01-03T21:15:50.612Z,6.80
2023-01-03T21:18:17.659Z,7.18
2023-01-03T21:20:44.811Z,6.75
2023-01-03T21:23:17.321Z,6.82
2023-01-03T21:25:44.582Z,7.30
2023-01-03T21:28:12.278Z,6.95
2023-01-03T21:30:39.805Z,6.85
2023-01-03T21:33:07.013Z,7.37
2023-01-03T21:35:33.943Z,6.72
2023-01-03T21:38:00.767Z,6.85
2023-01-03T21:40:29.811Z,6.10
2023-01-03T21:43:04.178Z,6.50
2023-01-03T21:45:41.993Z,6.75
2023-01-03T21:50:42.344Z,6.05
2023-01-03T21:53:16.988Z,5.97
2023-01-03T21:55:44.045Z,6.40
2023-01-03T21:58:13.909Z,6.55
2023-01-03T22:00:40.997Z,6.57
2023-01-03T22:03:32.800Z,6.65
2023-01-03T22:06:25.899Z,6.05
2023-01-03T22:08:53.424Z,6.32
2023-01-03T22:11:20.944Z,6.12
2023-01-03T22:13:49.171Z,6.55
2023-01-03T22:16:16.892Z,5.93
2023-01-03T22:18:43.831Z,7.05
2023-01-03T22:21:11.282Z,6.80
2023-01-03T22:23:39.511Z,7.03
2023-01-03T22:26:11.421Z,6.37
2023-01-03T22:28:40.577Z,6.70
2023-01-03T22:31:12.884Z,6.37
2023-01-03T22:33:40.277Z,6.40
2023-01-03T22:36:08.489Z,6.68
2023-01-03T22:38:36.601Z,6.18
2023-01-03T22:41:08.815Z,5.90
2023-01-03T22:43:35.852Z,6.25
2023-01-03T22:46:07.314Z,6.70
2023-01-03T22:48:34.263Z,6.50
2023-01-03T22:51:09.543Z,5.62
2023-01-03T22:53:41.443Z,6.00
2023-01-03T22:56:10.990Z,6.47
2023-01-03T22:58:38.377Z,7.12
2023-01-03T23:01:13.191Z,5.80
2023-01-03T23:03:40.263Z,6.20
2023-01-03T23:06:08.762Z,6.43
2023-01-03T23:08:36.044Z,6.18
2023-01-03T23:11:31.480Z,6.72
2023-01-03T23:14:02.030Z,6.20
2023-01-03T23:16:28.938Z,6.18
2023-01-03T23:18:55.860Z,6.03
2023-01-03T23:21:22.737Z,5.72
2023-01-03T23:23:50.592Z,5.82
2023-01-03T23:26:17.712Z,5.62
2023-01-03T23:28:44.816Z,6.00
2023-01-03T23:31:11.839Z,5.68
2023-01-03T23:33:38.831Z,5.68
2023-01-03T23:36:06.830Z,5.55
2023-01-03T23:38:33.770Z,5.82
2023-01-03T23:41:06.190Z,5.60
2023-01-03T23:43:34.170Z,5.87
2023-01-03T23:46:01.237Z,5.95
2023-01-03T23:48:28.657Z,5.55
2023-01-03T23:51:02.550Z,6.68
2023-01-03T23:53:29.380Z,6.12
2023-01-03T23:55:56.369Z,6.45
2023-01-03T23:58:23.247Z,5.72
